createdAt,value
2023-03-11T00:00:22.434Z,78.05
2023-03-11T00:02:52.659Z,78.95
2023-03-11T00:05:24.042Z,79.17
2023-03-11T00:07:51.537Z,78.86
2023-03-11T00:10:21.528Z,78.41
2023-03-11T00:12:48.241Z,78.48
2023-03-11T00:15:15.704Z,78.38
2023-03-11T00:17:42.577Z,78.53
2023-03-11T00:20:17.684Z,78.73
2023-03-11T00:22:44.521Z,78.80
2023-03-11T00:25:12.696Z,79.46
2023-03-11T00:27:39.572Z,79.64
2023-03-11T00:30:07.511Z,79.38
2023-03-11T00:32:34.346Z,79.43
2023-03-11T00:35:01.846Z,79.12
2023-03-11T00:37:28.664Z,79.04
2023-03-11T00:39:55.445Z,78.86
2023-03-11T00:42:22.234Z,78.69
2023-03-11T00:44:49.151Z,78.53
2023-03-11T00:47:15.892Z,78.56
2023-03-11T00:49:43.150Z,78.52
2023-03-11T00:52:10.095Z,78.43
2023-03-11T00:54:36.901Z,78.45
2023-03-11T00:57:04.350Z,78.28
2023-03-11T00:59:31.126Z,78.29
2023-03-11T01:01:58.440Z,78.37
2023-03-11T01:04:25.236Z,78.19
2023-03-11T01:06:52.047Z,78.18
2023-03-11T01:09:18.836Z,77.98
2023-03-11T01:11:45.641Z,77.80
2023-03-11T01:14:12.454Z,77.79
2023-03-11T01:16:39.252Z,77.55
2023-03-11T01:19:06.171Z,77.47
2023-03-11T01:21:33.066Z,77.47
2023-03-11T01:24:00.050Z,77.34
2023-03-11T01:26:26.874Z,77.25
2023-03-11T01:28:56.091Z,77.28
2023-03-11T01:31:23.127Z,77.40
2023-03-11T01:33:50.069Z,77.25
2023-03-11T01:36:16.798Z,77.55
2023-03-11T01:38:43.664Z,77.60
2023-03-11T01:41:12.145Z,77.43
2023-03-11T01:43:45.153Z,77.60
2023-03-11T01:46:22.974Z,77.95
2023-03-11T01:48:58.631Z,78.23
2023-03-11T01:51:32.342Z,78.04
2023-03-11T01:54:05.281Z,78.14
2023-03-11T01:56:33.201Z,78.37
2023-03-11T01:59:00.624Z,78.38
2023-03-11T02:01:28.197Z,78.53
2023-03-11T02:03:56.669Z,79.60
2023-03-11T02:06:25.376Z,79.62
2023-03-11T02:08:52.735Z,79.62
2023-03-11T02:11:27.334Z,79.33
2023-03-11T02:13:59.051Z,79.14
2023-03-11T02:16:26.293Z,79.31
2023-03-11T02:18:53.407Z,79.76
2023-03-11T02:21:22.965Z,80.45
2023-03-11T02:23:55.605Z,80.85
2023-03-11T02:26:29.612Z,81.30
2023-03-11T02:28:58.381Z,82.14
2023-03-11T02:31:26.527Z,82.00
2023-03-11T02:33:54.991Z,81.86
2023-03-11T02:36:38.411Z,82.21
2023-03-11T02:39:08.423Z,82.60
2023-03-11T02:41:40.272Z,82.68
2023-03-11T02:44:09.597Z,82.81
2023-03-11T02:46:38.547Z,82.83
2023-03-11T02:49:06.628Z,82.36
2023-03-11T02:51:34.187Z,82.23
2023-03-11T02:54:04.452Z,82.06
2023-03-11T02:56:32.025Z,81.40
2023-03-11T02:58:59.790Z,80.84
2023-03-11T03:01:28.393Z,80.28
2023-03-11T03:03:55.420Z,79.78
2023-03-11T03:06:22.473Z,79.54
2023-03-11T03:08:51.517Z,79.75
2023-03-11T03:11:18.386Z,79.95
2023-03-11T03:13:46.343Z,79.99
2023-03-11T03:16:13.262Z,79.97
2023-03-11T03:18:40.078Z,79.82
2023-03-11T03:21:08.846Z,79.46
2023-03-11T03:23:37.749Z,79.30
2023-03-11T03:26:06.037Z,79.24
2023-03-11T03:28:36.116Z,78.72
2023-03-11T03:31:11.239Z,78.43
2023-03-11T03:33:40.182Z,78.11
2023-03-11T03:36:13.529Z,77.76
2023-03-11T03:38:43.561Z,77.58
2023-03-11T03:41:13.190Z,77.11
2023-03-11T03:43:41.339Z,77.01
2023-03-11T03:46:09.126Z,77.36
2023-03-11T03:48:43.219Z,77.81
2023-03-11T03:51:13.301Z,77.95
2023-03-11T03:53:48.229Z,78.06
2023-03-11T03:56:17.082Z,77.97
2023-03-11T03:58:44.649Z,78.03
2023-03-11T04:01:12.072Z,77.98
2023-03-11T04:03:40.545Z,78.11
2023-03-11T04:06:22.997Z,78.43
2023-03-11T04:08:55.754Z,78.32
2023-03-11T04:11:27.281Z,77.63
2023-03-11T04:13:54.738Z,77.38
2023-03-11T04:16:23.564Z,77.52
2023-03-11T04:18:53.184Z,77.42
2023-03-11T04:21:21.186Z,77.67
2023-03-11T04:23:48.593Z,77.85
2023-03-11T04:26:17.287Z,77.79
2023-03-11T04:28:44.102Z,77.60
2023-03-11T04:31:12.574Z,77.44
2023-03-11T04:33:39.511Z,77.24
2023-03-11T04:36:09.855Z,76.95
2023-03-11T04:38:38.019Z,76.90
2023-03-11T04:41:07.549Z,76.65
2023-03-11T04:43:36.646Z,76.64
2023-03-11T04:46:04.174Z,76.68
2023-03-11T04:48:31.487Z,76.91
2023-03-11T04:50:58.354Z,77.14
2023-03-11T04:53:25.716Z,77.05
2023-03-11T04:55:54.094Z,76.83
2023-03-11T04:58:21.699Z,77.05
2023-03-11T05:00:48.625Z,77.07
2023-03-11T05:03:16.791Z,77.18
2023-03-11T05:05:44.878Z,77.15
2023-03-11T05:08:14.719Z,76.47
2023-03-11T05:10:42.869Z,76.95
2023-03-11T05:13:11.442Z,76.84
2023-03-11T05:15:41.117Z,76.66
2023-03-11T05:18:09.880Z,77.00
2023-03-11T05:20:39.860Z,77.34
2023-03-11T05:23:08.558Z,77.08
2023-03-11T05:25:38.937Z,76.32
2023-03-11T05:28:06.596Z,75.80
2023-03-11T05:30:37.997Z,75.99
2023-03-11T05:33:05.091Z,75.88
2023-03-11T05:35:32.174Z,76.11
2023-03-11T05:37:59.246Z,75.92
2023-03-11T05:40:28.453Z,75.89
2023-03-11T05:42:55.861Z,75.61
2023-03-11T05:45:23.097Z,75.28
2023-03-11T05:47:54.458Z,75.66
2023-03-11T05:50:21.540Z,75.23
2023-03-11T05:52:50.612Z,74.83
2023-03-11T05:55:18.538Z,74.25
2023-03-11T05:57:46.389Z,74.43
2023-03-11T06:00:13.804Z,74.19
2023-03-11T06:02:42.111Z,73.23
2023-03-11T06:05:13.742Z,72.21
2023-03-11T06:07:42.091Z,70.78
2023-03-11T06:10:09.993Z,69.90
2023-03-11T06:12:38.667Z,68.67
2023-03-11T06:15:25.774Z,68.99
2023-03-11T06:17:53.664Z,69.39
2023-03-11T06:20:20.515Z,69.65
2023-03-11T06:22:50.885Z,69.55
2023-03-11T06:25:18.781Z,69.00
2023-03-11T06:27:51.653Z,69.29
2023-03-11T06:30:20.249Z,69.71
2023-03-11T06:32:55.282Z,69.77
2023-03-11T06:35:22.307Z,69.33
2023-03-11T06:37:49.181Z,68.53
2023-03-11T06:40:16.149Z,68.30
2023-03-11T06:42:43.027Z,68.04
2023-03-11T06:45:11.291Z,67.89
2023-03-11T06:47:38.680Z,67.49
2023-03-11T06:50:07.509Z,67.48
2023-03-11T06:52:34.423Z,67.43
2023-03-11T06:55:01.633Z,67.40
2023-03-11T06:57:30.966Z,67.82
2023-03-11T07:00:00.886Z,68.16
2023-03-11T07:02:29.557Z,68.34
2023-03-11T07:04:56.504Z,67.65
2023-03-11T07:07:23.449Z,67.39
2023-03-11T07:09:50.254Z,66.62
2023-03-11T07:12:17.861Z,66.46
2023-03-11T07:14:45.312Z,65.91
2023-03-11T07:17:12.872Z,65.71
2023-03-11T07:19:46.202Z,64.89
2023-03-11T07:22:13.053Z,64.36
2023-03-11T07:24:39.798Z,64.43
2023-03-11T07:27:06.827Z,64.87
2023-03-11T07:29:33.647Z,65.29
2023-03-11T07:32:00.462Z,65.30
2023-03-11T07:34:27.315Z,65.12
2023-03-11T07:36:54.247Z,64.86
2023-03-11T07:39:22.700Z,64.85
2023-03-11T07:41:49.507Z,64.12
2023-03-11T07:44:17.460Z,64.34
2023-03-11T07:46:45.132Z,64.12
2023-03-11T07:49:12.495Z,63.52
2023-03-11T07:51:43.947Z,63.42
2023-03-11T07:54:12.907Z,63.02
2023-03-11T07:56:39.973Z,62.91
2023-03-11T07:59:06.818Z,62.91
2023-03-11T08:01:37.048Z,63.52
2023-03-11T08:04:06.162Z,63.58
2023-03-11T08:06:34.901Z,64.01
2023-03-11T08:09:04.612Z,64.36
2023-03-11T08:11:32.303Z,64.71
2023-03-11T08:13:59.618Z,65.28
2023-03-11T08:16:26.814Z,65.91
2023-03-11T08:18:54.236Z,66.24
2023-03-11T08:21:24.326Z,66.69
2023-03-11T08:23:52.163Z,66.94
2023-03-11T08:26:24.319Z,66.49
2023-03-11T08:28:51.325Z,66.11
2023-03-11T08:31:24.590Z,64.59
2023-03-11T08:33:53.628Z,63.56
2023-03-11T08:36:21.059Z,61.84
2023-03-11T08:38:48.024Z,61.33
2023-03-11T08:41:15.696Z,59.24
2023-03-11T08:43:43.056Z,58.58
2023-03-11T08:46:17.942Z,58.03
2023-03-11T08:48:45.395Z,57.75
2023-03-11T08:51:13.717Z,58.30
2023-03-11T08:53:40.876Z,57.90
2023-03-11T08:56:08.058Z,58.18
2023-03-11T08:58:35.558Z,57.82
2023-03-11T09:01:02.866Z,58.13
2023-03-11T09:03:36.110Z,57.69
2023-03-11T09:06:06.576Z,57.46
2023-03-11T09:08:33.925Z,57.90
2023-03-11T09:11:00.998Z,59.62
2023-03-11T09:13:27.982Z,60.58
2023-03-11T09:15:54.862Z,62.50
2023-03-11T09:18:21.729Z,63.18
2023-03-11T09:20:48.727Z,63.52
2023-03-11T09:23:17.223Z,63.98
2023-03-11T09:25:44.912Z,66.45
2023-03-11T09:28:11.768Z,67.56
2023-03-11T09:30:38.608Z,67.97
2023-03-11T09:33:05.387Z,67.63
2023-03-11T09:35:32.723Z,68.54
2023-03-11T09:37:59.676Z,69.06
2023-03-11T09:40:31.342Z,69.45
2023-03-11T09:43:24.928Z,68.95
2023-03-11T09:46:02.469Z,68.46
2023-03-11T09:48:35.030Z,68.16
2023-03-11T09:51:20.828Z,67.31
2023-03-11T09:53:53.768Z,66.95
2023-03-11T09:56:22.503Z,65.37
2023-03-11T09:58:52.585Z,64.86
2023-03-11T10:01:28.566Z,64.08
2023-03-11T10:03:59.801Z,62.07
2023-03-11T10:06:29.701Z,60.44
2023-03-11T10:09:12.536Z,59.03
2023-03-11T10:12:02.576Z,56.10
2023-03-11T10:14:40.183Z,56.50
2023-03-11T10:17:31.526Z,55.07
2023-03-11T10:20:13.354Z,52.76
2023-03-11T10:23:07.385Z,55.94
2023-03-11T10:25:52.222Z,53.87
2023-03-11T10:28:22.533Z,54.49
2023-03-11T10:31:03.661Z,55.18
2023-03-11T10:33:47.990Z,54.55
2023-03-11T10:36:24.011Z,54.54
2023-03-11T10:38:52.907Z,56.48
2023-03-11T10:41:43.049Z,56.90
2023-03-11T10:44:17.453Z,60.26
2023-03-11T10:46:45.258Z,67.33
2023-03-11T10:49:17.552Z,66.51
2023-03-11T10:51:50.730Z,67.14
2023-03-11T10:54:46.404Z,70.19
2023-03-11T10:57:29.347Z,70.56
2023-03-11T10:59:58.753Z,71.90
2023-03-11T11:02:51.404Z,74.80
2023-03-11T11:05:18.236Z,77.69
2023-03-11T11:07:46.802Z,78.56
2023-03-11T11:10:22.481Z,80.00
2023-03-11T11:12:54.999Z,78.85
2023-03-11T11:15:36.910Z,79.59
2023-03-11T11:18:18.071Z,79.79
2023-03-11T11:21:02.296Z,76.63
2023-03-11T11:23:42.588Z,79.46
2023-03-11T11:26:22.725Z,78.76
2023-03-11T11:29:13.785Z,79.15
2023-03-11T11:31:45.643Z,79.22
2023-03-11T11:34:32.340Z,78.37
2023-03-11T11:37:03.549Z,79.81
2023-03-11T11:39:51.435Z,80.30
2023-03-11T11:42:23.538Z,80.57
2023-03-11T11:44:57.657Z,80.39
2023-03-11T11:47:48.648Z,81.41
2023-03-11T11:50:27.968Z,81.93
2023-03-11T11:53:20.527Z,79.66
2023-03-11T11:55:50.234Z,78.19
2023-03-11T11:58:17.509Z,80.08
2023-03-11T12:01:15.045Z,80.57
2023-03-11T12:04:19.512Z,80.01
2023-03-11T12:07:12.315Z,80.77
2023-03-11T12:09:51.385Z,79.46
2023-03-11T12:12:19.179Z,81.23
2023-03-11T12:15:14.587Z,80.52
2023-03-11T12:17:44.567Z,80.26
2023-03-11T12:20:27.893Z,77.25
2023-03-11T12:23:08.237Z,79.61
2023-03-11T12:25:46.981Z,80.03
2023-03-11T12:28:31.933Z,79.29
2023-03-11T12:31:03.753Z,79.48
2023-03-11T12:33:35.610Z,80.15
2023-03-11T12:36:04.449Z,79.35
2023-03-11T12:38:34.324Z,78.81
2023-03-11T12:41:08.987Z,79.00
2023-03-11T12:43:35.875Z,78.64
2023-03-11T12:46:05.004Z,77.63
2023-03-11T12:49:12.059Z,77.56
2023-03-11T12:51:40.389Z,82.26
2023-03-11T12:54:31.456Z,82.42
2023-03-11T12:57:18.607Z,79.64
2023-03-11T13:00:23.182Z,78.38
2023-03-11T13:03:29.702Z,80.54
2023-03-11T13:06:19.975Z,81.10
2023-03-11T13:08:50.512Z,80.90
2023-03-11T13:11:47.729Z,76.60
2023-03-11T13:14:22.288Z,77.78
2023-03-11T13:16:50.252Z,70.55
2023-03-11T13:19:26.420Z,73.94
2023-03-11T13:22:01.796Z,74.69
2023-03-11T13:24:31.818Z,69.77
2023-03-11T13:26:58.615Z,66.85
2023-03-11T13:29:42.320Z,71.76
2023-03-11T13:32:30.550Z,72.87
2023-03-11T13:35:12.238Z,76.25
2023-03-11T13:37:44.589Z,72.61
2023-03-11T13:40:20.129Z,74.87
2023-03-11T13:42:50.781Z,71.25
2023-03-11T13:45:38.710Z,75.05
2023-03-11T13:48:16.513Z,73.70
2023-03-11T13:50:52.052Z,68.81
2023-03-11T13:53:30.052Z,66.45
2023-03-11T13:55:56.913Z,69.65
2023-03-11T13:58:25.897Z,69.27
2023-03-11T14:01:01.211Z,67.01
2023-03-11T14:03:41.690Z,68.55
2023-03-11T14:06:19.331Z,72.37
2023-03-11T14:08:57.541Z,70.99
2023-03-11T14:11:32.070Z,75.93
2023-03-11T14:13:59.004Z,74.73
2023-03-11T14:16:44.324Z,74.14
2023-03-11T14:19:16.623Z,71.21
2023-03-11T14:21:45.581Z,75.14
2023-03-11T14:24:30.276Z,75.74
2023-03-11T14:27:01.393Z,73.63
2023-03-11T14:29:34.330Z,71.03
2023-03-11T14:32:15.057Z,74.87
2023-03-11T14:34:41.871Z,71.77
2023-03-11T14:37:30.712Z,68.66
2023-03-11T14:39:57.738Z,68.02
2023-03-11T14:42:40.096Z,70.90
2023-03-11T14:45:17.259Z,68.21
2023-03-11T14:47:56.825Z,70.09
2023-03-11T14:50:30.706Z,66.79
2023-03-11T14:53:15.954Z,69.71
2023-03-11T14:56:04.102Z,66.29
2023-03-11T14:59:07.919Z,68.98
2023-03-11T15:01:41.985Z,69.27
2023-03-11T15:04:11.753Z,71.61
2023-03-11T15:06:41.229Z,67.46
2023-03-11T15:09:15.779Z,71.75
2023-03-11T15:11:55.342Z,64.94
2023-03-11T15:14:36.059Z,67.52
2023-03-11T15:17:37.126Z,65.98
2023-03-11T15:20:27.739Z,68.27
2023-03-11T15:22:58.389Z,65.33
2023-03-11T15:25:25.285Z,63.69
2023-03-11T15:27:52.334Z,66.03
2023-03-11T15:30:28.669Z,63.63
2023-03-11T15:32:56.942Z,64.43
2023-03-11T15:35:26.744Z,66.41
2023-03-11T15:38:21.550Z,65.93
2023-03-11T15:40:58.623Z,67.55
2023-03-11T15:43:33.557Z,69.19
2023-03-11T15:46:02.836Z,65.43
2023-03-11T15:48:31.300Z,66.36
2023-03-11T15:50:59.619Z,67.27
2023-03-11T15:53:27.713Z,70.15
2023-03-11T15:56:06.596Z,66.33
2023-03-11T15:58:35.621Z,67.42
2023-03-11T16:01:02.834Z,66.59
2023-03-11T16:03:31.355Z,67.39
2023-03-11T16:05:58.421Z,70.45
2023-03-11T16:08:25.257Z,69.87
2023-03-11T16:10:52.033Z,69.24
2023-03-11T16:13:18.805Z,68.20
2023-03-11T16:15:47.258Z,71.45
2023-03-11T16:18:14.186Z,70.64
2023-03-11T16:20:51.200Z,71.44
2023-03-11T16:23:44.825Z,71.40
2023-03-11T16:26:17.487Z,68.58
2023-03-11T16:28:44.545Z,70.02
2023-03-11T16:31:11.334Z,69.79
2023-03-11T16:33:38.216Z,71.49
2023-03-11T16:36:05.929Z,69.98
2023-03-11T16:38:42.521Z,71.90
2023-03-11T16:41:09.339Z,72.60
2023-03-11T16:43:36.176Z,71.97
2023-03-11T16:46:03.139Z,72.56
2023-03-11T16:48:30.101Z,73.64
2023-03-11T16:50:56.974Z,70.07
2023-03-11T16:53:25.338Z,72.17
2023-03-11T16:55:53.616Z,71.31
2023-03-11T16:58:20.668Z,73.28
2023-03-11T17:00:47.635Z,73.85
2023-03-11T17:03:18.214Z,73.01
2023-03-11T17:05:47.989Z,73.33
2023-03-11T17:08:16.392Z,73.45
2023-03-11T17:10:45.216Z,72.25
2023-03-11T17:13:13.740Z,73.35
2023-03-11T17:15:44.368Z,73.93
2023-03-11T17:18:11.992Z,74.43
2023-03-11T17:20:40.594Z,73.10
2023-03-11T17:23:07.354Z,72.74
2023-03-11T17:25:34.106Z,73.32
2023-03-11T17:28:01.031Z,75.13
2023-03-11T17:30:36.799Z,73.77
2023-03-11T17:33:04.438Z,74.76
2023-03-11T17:35:31.356Z,75.05
2023-03-11T17:37:58.495Z,72.54
2023-03-11T17:40:27.052Z,73.73
2023-03-11T17:42:54.089Z,73.57
2023-03-11T17:45:20.932Z,73.81
2023-03-11T17:47:47.796Z,72.13
2023-03-11T17:50:14.864Z,74.13
2023-03-11T17:52:41.621Z,73.97
2023-03-11T17:55:09.288Z,74.79
2023-03-11T17:57:45.204Z,75.05
2023-03-11T18:00:14.874Z,74.91
2023-03-11T18:02:42.349Z,75.83
2023-03-11T18:05:09.529Z,74.05
2023-03-11T18:07:39.465Z,75.72
2023-03-11T18:10:07.193Z,75.79
2023-03-11T18:12:34.207Z,74.77
2023-03-11T18:15:04.283Z,75.19
2023-03-11T18:17:31.662Z,74.53
2023-03-11T18:20:01.986Z,75.03
2023-03-11T18:22:28.795Z,75.11
2023-03-11T18:24:55.625Z,74.93
2023-03-11T18:27:24.538Z,75.65
2023-03-11T18:29:51.941Z,76.65
2023-03-11T18:32:20.839Z,76.79
2023-03-11T18:34:51.413Z,76.33
2023-03-11T18:37:18.381Z,75.34
2023-03-11T18:39:45.144Z,74.82
2023-03-11T18:42:14.068Z,75.50
2023-03-11T18:44:41.785Z,75.52
2023-03-11T18:47:08.563Z,75.03
2023-03-11T18:49:35.391Z,76.27
2023-03-11T18:52:02.238Z,75.87
2023-03-11T18:54:29.054Z,75.53
2023-03-11T18:56:55.925Z,75.79
2023-03-11T18:59:23.088Z,76.72
2023-03-11T19:01:51.049Z,76.52
2023-03-11T19:04:17.949Z,76.60
2023-03-11T19:06:44.916Z,76.39
2023-03-11T19:09:11.681Z,76.63
2023-03-11T19:11:38.511Z,76.52
2023-03-11T19:14:05.295Z,76.33
2023-03-11T19:16:32.330Z,76.68
2023-03-11T19:18:59.283Z,76.79
2023-03-11T19:21:26.296Z,75.54
2023-03-11T19:23:55.324Z,76.43
2023-03-11T19:26:33.761Z,76.19
2023-03-11T19:29:04.597Z,75.65
2023-03-11T19:31:31.505Z,75.90
2023-03-11T19:33:59.656Z,76.27
2023-03-11T19:36:27.677Z,76.46
2023-03-11T19:38:54.437Z,76.15
2023-03-11T19:41:23.103Z,76.07
2023-03-11T19:43:50.034Z,75.39
2023-03-11T19:46:19.984Z,76.50
2023-03-11T19:48:47.009Z,76.15
2023-03-11T19:51:14.362Z,76.27
2023-03-11T19:53:41.877Z,74.97
2023-03-11T19:56:09.739Z,75.54
2023-03-11T19:58:36.782Z,76.53
2023-03-11T20:01:04.176Z,74.69
2023-03-11T20:03:31.756Z,74.54
2023-03-11T20:06:05.480Z,75.57
2023-03-11T20:08:36.727Z,74.93
2023-03-11T20:11:05.636Z,75.76
2023-03-11T20:13:34.705Z,75.79
2023-03-11T20:16:10.016Z,74.75
2023-03-11T20:18:37.280Z,75.95
2023-03-11T20:21:06.301Z,76.02
2023-03-11T20:23:33.636Z,76.58
2023-03-11T20:26:00.563Z,76.65
2023-03-11T20:28:27.426Z,76.88
2023-03-11T20:30:55.410Z,77.05
2023-03-11T20:33:22.232Z,76.66
2023-03-11T20:35:49.073Z,77.12
2023-03-11T20:38:16.047Z,76.56
2023-03-11T20:40:43.208Z,76.18
2023-03-11T20:43:10.172Z,76.67
2023-03-11T20:45:36.969Z,76.56
2023-03-11T20:48:04.217Z,77.29
2023-03-11T20:50:31.031Z,76.70
2023-03-11T20:52:57.969Z,76.97
2023-03-11T20:55:25.613Z,77.22
2023-03-11T20:57:54.402Z,76.95
2023-03-11T21:00:21.644Z,76.78
2023-03-11T21:02:49.040Z,76.29
2023-03-11T21:05:15.883Z,76.12
2023-03-11T21:07:42.694Z,76.79
2023-03-11T21:10:11.986Z,77.05
2023-03-11T21:12:38.931Z,76.98
2023-03-11T21:15:07.784Z,76.50
2023-03-11T21:17:35.352Z,76.74
2023-03-11T21:20:05.181Z,76.45
2023-03-11T21:22:33.149Z,76.58
2023-03-11T21:25:00.123Z,76.14
2023-03-11T21:27:27.235Z,76.48
2023-03-11T21:29:57.956Z,75.79
2023-03-11T21:32:26.670Z,76.85
2023-03-11T21:35:00.824Z,76.28
2023-03-11T21:37:28.709Z,74.35
2023-03-11T21:39:55.715Z,75.74
2023-03-11T21:42:22.902Z,76.12
2023-03-11T21:44:51.390Z,76.41
2023-03-11T21:47:19.664Z,75.57
2023-03-11T21:49:46.692Z,75.89
2023-03-11T21:52:13.777Z,77.17
2023-03-11T21:54:40.760Z,75.80
2023-03-11T21:57:07.667Z,76.46
2023-03-11T21:59:34.641Z,77.11
2023-03-11T22:02:03.290Z,76.24
2023-03-11T22:04:31.568Z,76.41
2023-03-11T22:06:58.554Z,77.04
2023-03-11T22:09:26.364Z,76.50
2023-03-11T22:11:53.547Z,76.39
2023-03-11T22:14:20.437Z,76.69
2023-03-11T22:16:47.374Z,76.31
2023-03-11T22:19:14.415Z,76.69
2023-03-11T22:21:41.292Z,76.88
2023-03-11T22:24:08.206Z,77.70
2023-03-11T22:26:35.321Z,77.30
2023-03-11T22:29:04.171Z,77.86
2023-03-11T22:31:31.665Z,77.80
2023-03-11T22:33:58.660Z,77.23
2023-03-11T22:36:25.493Z,77.09
2023-03-11T22:38:52.372Z,77.19
2023-03-11T22:41:20.354Z,77.34
2023-03-11T22:43:47.431Z,76.12
2023-03-11T22:46:14.569Z,76.73
2023-03-11T22:48:41.669Z,76.58
2023-03-11T22:51:08.644Z,77.18
2023-03-11T22:53:35.502Z,76.33
2023-03-11T22:56:10.870Z,76.52
2023-03-11T22:58:38.097Z,77.38
2023-03-11T23:01:05.486Z,76.73
2023-03-11T23:03:33.442Z,76.28
2023-03-11T23:06:06.890Z,76.57
2023-03-11T23:08:34.943Z,76.35
2023-03-11T23:11:04.546Z,76.51
2023-03-11T23:13:32.208Z,76.39
2023-03-11T23:16:05.120Z,76.94
2023-03-11T23:18:32.003Z,76.83
2023-03-11T23:20:58.861Z,76.57
2023-03-11T23:23:25.874Z,76.77
2023-03-11T23:25:53.355Z,77.40
2023-03-11T23:28:20.585Z,77.68
2023-03-11T23:30:47.736Z,77.63
2023-03-11T23:33:14.601Z,77.76
2023-03-11T23:35:42.163Z,77.87
2023-03-11T23:38:10.134Z,78.25
2023-03-11T23:40:39.798Z,77.56
2023-03-11T23:43:06.508Z,77.14
2023-03-11T23:45:33.258Z,76.82
2023-03-11T23:48:00.139Z,76.92
2023-03-11T23:50:26.888Z,77.02
2023-03-11T23:52:53.756Z,77.05
2023-03-11T23:55:20.514Z,76.82
2023-03-11T23:57:47.242Z,76.76
